createdAt,value
2023-01-31T00:02:56.202Z,25.4
2023-01-31T00:08:19.139Z,26.8
2023-01-31T00:13:42.589Z,25.3
2023-01-31T00:19:05.394Z,24.6
2023-01-31T00:24:29.565Z,26.3
2023-01-31T00:29:53.345Z,27.5
2023-01-31T00:35:16.996Z,24.8
2023-01-31T00:40:23.837Z,26.8
2023-01-31T00:45:30.744Z,25.3
2023-01-31T00:50:54.430Z,24.8
2023-01-31T00:56:17.008Z,26.5
2023-01-31T01:01:41.530Z,25.9
2023-01-31T01:07:04.599Z,24.7
2023-01-31T01:12:28.345Z,26.5
2023-01-31T01:17:52.263Z,26.2
2023-01-31T01:23:14.925Z,24.9
2023-01-31T01:28:39.643Z,26.6
2023-01-31T01:33:47.046Z,25.7
2023-01-31T01:39:11.189Z,24.6
2023-01-31T01:44:19.027Z,26.4
2023-01-31T01:49:27.977Z,26.3
2023-01-31T01:54:36.214Z,24.5
2023-01-31T01:59:58.326Z,26.4
2023-01-31T02:05:20.726Z,26.1
2023-01-31T02:10:43.842Z,25.4
2023-01-31T02:16:07.536Z,26.8
2023-01-31T02:20:59.575Z,25
2023-01-31T02:26:21.774Z,25.8
2023-01-31T02:31:45.253Z,27.1
2023-01-31T02:37:07.869Z,25.1
2023-01-31T02:42:14.388Z,25.8
2023-01-31T02:47:37.456Z,27.2
2023-01-31T02:53:00.012Z,24.6
2023-01-31T02:58:23.328Z,26.4
2023-01-31T03:03:47.175Z,26.2
2023-01-31T03:09:10.323Z,25.7
2023-01-31T03:14:32.911Z,26.8
2023-01-31T03:19:40.729Z,24.9
2023-01-31T03:24:47.941Z,25.8
2023-01-31T03:30:11.763Z,27.1
2023-01-31T03:35:35.374Z,24.7
2023-01-31T03:40:58.303Z,26.2
2023-01-31T03:46:22.652Z,27.4
2023-01-31T03:51:45.150Z,24.9
2023-01-31T03:57:07.671Z,26.7
2023-01-31T04:02:15.531Z,25.4
2023-01-31T04:07:38.936Z,25.9
2023-01-31T04:12:46.891Z,27.1
2023-01-31T04:18:10.947Z,24.8
2023-01-31T04:23:33.350Z,26.2
2023-01-31T04:28:56.986Z,27.4
2023-01-31T04:34:20.741Z,24.1
2023-01-31T04:39:43.882Z,26.4
2023-01-31T04:45:07.059Z,25.5
2023-01-31T04:50:30.376Z,25.9
2023-01-31T04:55:53.823Z,27.1
2023-01-31T05:01:16.991Z,24.8
2023-01-31T05:06:26.460Z,26.4
2023-01-31T05:11:49.351Z,26.8
2023-01-31T05:17:12.925Z,25.6
2023-01-31T05:22:36.121Z,26.9
2023-01-31T05:28:03.211Z,24.8
2023-01-31T05:33:30.294Z,26.2
2023-01-31T05:38:53.850Z,27.4
2023-01-31T05:44:16.856Z,25
2023-01-31T05:49:23.861Z,26.8
2023-01-31T05:54:47.440Z,25
2023-01-31T05:59:55.386Z,26.2
2023-01-31T06:05:03.675Z,27.3
2023-01-31T06:10:27.159Z,24.4
2023-01-31T06:15:50.714Z,26.6
2023-01-31T06:20:58.840Z,26.9
2023-01-31T06:26:22.281Z,25.3
2023-01-31T06:31:45.557Z,26.9
2023-01-31T06:37:22.126Z,24.6
2023-01-31T06:42:30.675Z,24.1
2023-01-31T06:47:39.480Z,24.5
2023-01-31T06:53:02.206Z,23.8
2023-01-31T06:58:26.115Z,25.3
2023-01-31T07:03:49.141Z,26.8
2023-01-31T07:09:12.271Z,24.6
2023-01-31T07:14:34.929Z,23.9
2023-01-31T07:19:58.307Z,24.5
2023-01-31T07:25:22.162Z,23.8
2023-01-31T07:37:06.278Z,26.7
2023-01-31T07:42:29.910Z,24.9
2023-01-31T07:48:22.418Z,23.9
2023-01-31T07:53:45.931Z,24.4
2023-01-31T07:59:09.223Z,23.7
2023-01-31T08:04:40.165Z,24.9
2023-01-31T08:10:03.173Z,26.5
2023-01-31T08:15:25.921Z,26.3
2023-01-31T08:20:49.159Z,23.8
2023-01-31T08:26:12.711Z,25.1
2023-01-31T08:31:50.384Z,26.6
2023-01-31T08:37:17.324Z,24.9
2023-01-31T08:42:51.007Z,23.9
2023-01-31T08:48:29.076Z,24.6
2023-01-31T08:53:48.919Z,23.8
2023-01-31T08:59:24.824Z,24.8
2023-01-31T09:04:48.647Z,26.3
2023-01-31T09:10:12.072Z,22.6
2023-01-31T09:15:34.883Z,25.5
2023-01-31T09:20:42.589Z,27.1
2023-01-31T09:26:20.828Z,23.9
2023-01-31T09:31:45.447Z,23.5
2023-01-31T09:37:08.504Z,25.8
2023-01-31T09:42:32.023Z,27.2
2023-01-31T09:47:55.457Z,23.9
2023-01-31T09:53:19.016Z,23.9
2023-01-31T09:58:43.563Z,26.1
2023-01-31T10:04:07.218Z,26.9
2023-01-31T10:09:15.041Z,23.9
2023-01-31T10:14:24.404Z,25.2
2023-01-31T10:19:32.624Z,26.5
2023-01-31T10:24:41.757Z,25.2
2023-01-31T10:29:51.921Z,23.9
2023-01-31T10:34:58.753Z,24.8
2023-01-31T10:40:23.196Z,24.1
2023-01-31T10:45:46.205Z,24.4
2023-01-31T10:51:10.528Z,26.1
2023-01-31T10:56:34.457Z,27.4
2023-01-31T11:01:56.968Z,23.8
2023-01-31T11:07:04.323Z,25
2023-01-31T11:12:27.531Z,26.4
2023-01-31T11:17:50.185Z,25.9
2023-01-31T11:23:12.826Z,23.9
2023-01-31T11:28:35.615Z,24.8
2023-01-31T11:33:58.729Z,24
2023-01-31T11:39:05.494Z,24.5
2023-01-31T11:44:28.362Z,26.1
2023-01-31T11:49:51.291Z,24
2023-01-31T11:55:17.525Z,26.1
2023-01-31T12:00:40.771Z,27.4
2023-01-31T12:06:17.761Z,23.7
2023-01-31T12:11:40.360Z,25.1
2023-01-31T12:17:13.461Z,26.7
2023-01-31T12:22:41.229Z,24.5
2023-01-31T12:28:04.216Z,23.7
2023-01-31T12:33:27.339Z,25.8
2023-01-31T12:39:05.279Z,27.1
2023-01-31T12:44:36.692Z,23.7
2023-01-31T12:50:15.001Z,23.6
2023-01-31T12:55:38.483Z,25.9
2023-01-31T13:01:14.439Z,27.3
2023-01-31T13:06:38.516Z,23.6
2023-01-31T13:12:13.911Z,23.3
2023-01-31T13:17:21.734Z,22.9
2023-01-31T13:22:44.387Z,22.5
2023-01-31T13:28:07.632Z,22
2023-01-31T13:33:30.747Z,21.4
2023-01-31T13:38:53.823Z,20.9
2023-01-31T13:44:01.085Z,20.4
2023-01-31T13:49:24.792Z,19.9
2023-01-31T13:54:50.960Z,19.4
2023-01-31T14:00:00.780Z,18.9
2023-01-31T14:05:23.482Z,18.6
2023-01-31T14:10:47.462Z,18.2
2023-01-31T14:16:11.247Z,17.8
2023-01-31T14:21:34.327Z,17.4
2023-01-31T14:26:56.839Z,17.1
2023-01-31T14:32:22.942Z,16.8
2023-01-31T14:37:45.121Z,16.4
2023-01-31T14:43:08.040Z,16.1
2023-01-31T14:48:35.313Z,15.8
2023-01-31T14:53:57.608Z,15.6
2023-01-31T14:59:20.398Z,15.4
2023-01-31T15:04:43.034Z,15.1
2023-01-31T15:10:05.925Z,14.9
2023-01-31T15:15:50.016Z,14.8
2023-01-31T15:21:29.990Z,14.6
2023-01-31T15:26:52.797Z,14.4
2023-01-31T15:32:16.191Z,14.4
2023-01-31T15:37:23.476Z,14.3
2023-01-31T15:42:46.376Z,14.3
2023-01-31T15:48:09.630Z,14.4
2023-01-31T15:53:51.588Z,14.8
2023-01-31T15:59:16.109Z,15.3
2023-01-31T16:04:38.893Z,15.9
2023-01-31T16:09:36.077Z,16.4
2023-01-31T16:14:58.918Z,16.9
2023-01-31T16:20:21.863Z,17.3
2023-01-31T16:25:44.967Z,17.7
2023-01-31T16:31:08.870Z,18.1
2023-01-31T16:36:31.462Z,18.6
2023-01-31T16:41:53.864Z,19
2023-01-31T16:47:16.381Z,19.4
2023-01-31T16:52:55.496Z,19.8
2023-01-31T16:58:18.466Z,20.1
2023-01-31T17:03:42.335Z,20.3
2023-01-31T17:08:52.728Z,20.4
2023-01-31T17:14:15.139Z,20.3
2023-01-31T17:19:44.174Z,20.1
2023-01-31T17:25:19.153Z,19.9
2023-01-31T17:30:45.716Z,19.6
2023-01-31T17:36:11.168Z,19.4
2023-01-31T17:41:50.050Z,19.2
2023-01-31T17:47:06.899Z,18.9
2023-01-31T17:58:10.836Z,18.5
2023-01-31T18:03:49.946Z,18.4
2023-01-31T18:09:28.115Z,18.3
2023-01-31T18:15:00.660Z,18.2
2023-01-31T18:20:38.658Z,18.1
2023-01-31T18:26:08.556Z,18.1
2023-01-31T18:31:42.591Z,17.9
2023-01-31T18:37:58.291Z,17.8
2023-01-31T18:43:14.899Z,17.7
2023-01-31T18:48:52.635Z,17.5
2023-01-31T18:54:26.119Z,17.4
2023-01-31T19:00:05.504Z,17.2
2023-01-31T19:05:24.387Z,17.1
2023-01-31T19:21:12.618Z,17.1
2023-01-31T19:26:35.201Z,17.1
2023-01-31T19:32:11.149Z,17.2
2023-01-31T19:37:49.491Z,17.3
2023-01-31T19:43:24.528Z,17.2
2023-01-31T19:49:09.968Z,17.2
2023-01-31T19:54:29.853Z,17.1
2023-01-31T19:59:40.690Z,17.1
2023-01-31T20:10:11.638Z,16.9
2023-01-31T20:15:20.374Z,16.8
2023-01-31T20:20:29.597Z,16.8
2023-01-31T20:25:52.792Z,16.6
2023-01-31T20:31:15.889Z,16.6
2023-01-31T20:36:07.571Z,16.6
2023-01-31T20:41:31.103Z,16.5
2023-01-31T20:46:38.738Z,16.5
2023-01-31T20:51:47.955Z,16.4
2023-01-31T20:56:55.612Z,16.4
2023-01-31T21:02:18.701Z,16.4
2023-01-31T21:07:10.149Z,16.3
2023-01-31T21:12:33.421Z,16.2
2023-01-31T21:18:05.771Z,16.1
2023-01-31T21:23:29.083Z,16
2023-01-31T21:28:36.793Z,15.9
2023-01-31T21:34:01.428Z,15.9
2023-01-31T21:39:23.466Z,15.8
2023-01-31T21:44:30.823Z,15.7
2023-01-31T21:49:56.640Z,15.6
2023-01-31T21:55:04.145Z,15.5
2023-01-31T22:00:27.205Z,15.4
2023-01-31T22:05:35.068Z,15.4
2023-01-31T22:10:42.736Z,15.7
2023-01-31T22:16:07.896Z,23.3
2023-01-31T22:21:31.469Z,22.8
2023-01-31T22:26:54.331Z,25.9
2023-01-31T22:32:31.583Z,27
2023-01-31T22:37:54.631Z,25.9
2023-01-31T22:43:18.821Z,25.6
2023-01-31T22:48:42.166Z,24.9
2023-01-31T22:54:05.167Z,24.6
2023-01-31T22:59:27.496Z,23.9
2023-01-31T23:04:50.780Z,24.9
2023-01-31T23:09:57.673Z,26.8
2023-01-31T23:15:04.312Z,25.8
2023-01-31T23:20:11.775Z,25.3
2023-01-31T23:25:34.747Z,25
2023-01-31T23:30:58.352Z,24.3
2023-01-31T23:36:06.695Z,24.2
2023-01-31T23:41:14.113Z,23.5
2023-01-31T23:46:36.595Z,25
2023-01-31T23:51:59.090Z,26.8
2023-01-31T23:57:22.913Z,25.5
